LiveATC.Net - Listen to live air traffic control over the Internet!


ICAO: SBGO  IATA: GYN   Airport: Santa Genoveva Airport
City: Goiania
Country: Brazil   Continent: South America
SBGO METAR Weather: SBGO 251200Z VRB02KT CAVOK 24/21 Q1018
SBGO Flight Activity (FlightAware)

SBGO Gnd/Twr/App
Feed Status: UP   Listeners: 0
Listen in your browser - HTML5 player (in browser, HTML5)
Click here to listen with your own player (launches your MP3 player)
Archive Access: SBGO Gnd/Twr/App
FacilityFrequency
Anapolis Approach119.150
Anapolis Approach120.550
Anapolis Approach129.450
Anapolis Approach133.000
Emergency/Guard121.500
Goiania Ground121.700
Goiania Tower118.700
Goiania Tower121.050

NOTICE

Unauthorized use prohibited. See LiveATC.net Terms of Service


Airport/ARTCC Code
Frequency Search
(e.g., 124.400, 128.75)
Site-wide search
 


Browse Feeds
Top 50 Feeds
Coverage Map
Bad Weather Areas

LiveATC FAQ
Offer LiveATC feed
Contact LiveATC.net
Press Inquiries

LiveATC on iPhone
LiveATC on Android

Windows Phone
Windows 8/10

LiveATC Mobile
(Mobile browser)

ATC Audio Archives
Interesting Recordings

LiveATC Forums


Home Page
About LiveATC.net
Make a Donation
Terms of Use
Privacy Policy

Canadian Air Freqs

AIRMETs/SIGMETs

FAA Airport Status
Nat'l Airspace Status
Arrival Demand Charts


Server Software By:
Icecast.org
Liquidsoap